createdAt,value
2023-01-12T00:01:08.016Z,8.10
2023-01-12T00:03:34.679Z,9.90
2023-01-12T00:06:01.612Z,10.30
2023-01-12T00:08:28.260Z,10.00
2023-01-12T00:10:57.899Z,10.60
2023-01-12T00:13:24.475Z,11.00
2023-01-12T00:16:09.853Z,8.60
2023-01-12T00:18:36.449Z,11.50
2023-01-12T00:21:03.082Z,12.10
2023-01-12T00:23:29.688Z,10.30
2023-01-12T00:25:56.304Z,8.90
2023-01-12T00:28:22.980Z,10.30
2023-01-12T00:30:49.709Z,7.30
2023-01-12T00:33:16.444Z,13.20
2023-01-12T00:35:43.021Z,9.20
2023-01-12T00:38:09.604Z,6.20
2023-01-12T00:40:36.262Z,9.80
2023-01-12T00:43:21.830Z,9.80
2023-01-12T00:45:51.591Z,11.90
2023-01-12T00:48:18.370Z,12.20
2023-01-12T00:50:46.480Z,10.20
2023-01-12T00:53:13.295Z,8.40
2023-01-12T00:55:39.972Z,8.80
2023-01-12T00:58:06.627Z,7.00
2023-01-12T01:01:32.261Z,10.00
2023-01-12T01:03:59.020Z,12.10
2023-01-12T01:06:25.615Z,13.10
2023-01-12T01:08:52.186Z,13.70
2023-01-12T01:11:18.878Z,14.60
2023-01-12T01:13:45.601Z,12.60
2023-01-12T01:16:14.083Z,11.20
2023-01-12T01:18:40.717Z,14.20
2023-01-12T01:21:08.314Z,8.20
2023-01-12T01:23:35.238Z,10.20
2023-01-12T01:26:02.500Z,6.80
2023-01-12T01:28:29.082Z,8.90
2023-01-12T01:31:02.180Z,5.40
2023-01-12T01:33:28.897Z,8.10
2023-01-12T01:35:56.579Z,9.70
2023-01-12T01:38:23.270Z,7.40
2023-01-12T01:40:49.955Z,9.10
2023-01-12T01:43:16.747Z,5.70
2023-01-12T01:45:43.445Z,6.60
2023-01-12T01:48:10.744Z,7.90
2023-01-12T01:50:38.370Z,6.40
2023-01-12T01:53:06.176Z,5.90
2023-01-12T01:55:35.034Z,9.40
2023-01-12T01:58:03.070Z,11.20
2023-01-12T02:00:29.758Z,9.50
2023-01-12T02:02:56.438Z,12.20
2023-01-12T02:05:23.741Z,7.30
2023-01-12T02:07:50.299Z,6.10
2023-01-12T02:10:17.130Z,11.50
2023-01-12T02:14:39.714Z,7.90
2023-01-12T02:17:06.312Z,9.40
2023-01-12T02:19:51.536Z,12.30
2023-01-12T02:22:18.200Z,6.30
2023-01-12T02:24:48.837Z,6.70
2023-01-12T02:27:29.956Z,8.40
2023-01-12T02:29:56.659Z,7.50
2023-01-12T02:32:26.361Z,7.70
2023-01-12T02:34:59.203Z,12.80
2023-01-12T02:37:31.913Z,15.90
2023-01-12T02:40:11.214Z,9.70
2023-01-12T02:42:41.956Z,5.90
2023-01-12T02:45:08.733Z,9.10
2023-01-12T02:47:42.100Z,5.30
2023-01-12T02:50:09.616Z,8.40
2023-01-12T02:52:36.250Z,5.30
2023-01-12T02:55:02.886Z,7.10
2023-01-12T02:57:29.596Z,6.70
2023-01-12T02:59:56.605Z,5.50
2023-01-12T03:02:23.519Z,2.40
2023-01-12T03:04:50.312Z,3.80
2023-01-12T03:07:19.906Z,2.70
2023-01-12T03:09:50.576Z,6.40
2023-01-12T03:12:19.064Z,5.60
2023-01-12T03:14:46.285Z,4.90
2023-01-12T03:17:22.665Z,4.00
2023-01-12T03:19:49.286Z,5.40
2023-01-12T03:22:15.917Z,4.30
2023-01-12T03:24:46.481Z,6.00
2023-01-12T03:27:14.141Z,3.10
2023-01-12T03:29:42.558Z,9.60
2023-01-12T03:32:09.172Z,3.20
2023-01-12T03:34:35.855Z,3.90
2023-01-12T03:37:14.984Z,3.80
2023-01-12T03:39:47.839Z,6.40
2023-01-12T03:42:18.168Z,6.80
2023-01-12T03:44:52.309Z,11.20
2023-01-12T03:47:20.848Z,8.80
2023-01-12T03:49:48.243Z,9.70
2023-01-12T03:52:14.880Z,5.10
2023-01-12T03:54:41.510Z,3.70
2023-01-12T03:57:08.171Z,8.90
2023-01-12T03:59:34.975Z,5.50
2023-01-12T04:02:01.658Z,9.30
2023-01-12T04:04:28.334Z,7.80
2023-01-12T04:06:54.996Z,10.30
2023-01-12T04:09:22.992Z,9.40
2023-01-12T04:12:08.317Z,13.50
2023-01-12T04:14:35.054Z,9.60
2023-01-12T04:17:01.731Z,12.30
2023-01-12T04:19:28.436Z,12.70
2023-01-12T04:22:14.003Z,14.70
2023-01-12T04:24:40.670Z,7.60
2023-01-12T04:27:07.323Z,14.40
2023-01-12T04:29:35.184Z,12.00
2023-01-12T04:32:01.921Z,10.10
2023-01-12T04:34:28.769Z,13.10
2023-01-12T04:36:55.492Z,11.80
2023-01-12T04:39:22.196Z,7.70
2023-01-12T04:41:48.813Z,10.70
2023-01-12T04:44:15.508Z,11.30
2023-01-12T04:46:42.112Z,15.30
2023-01-12T04:49:08.811Z,9.60
2023-01-12T04:51:35.456Z,10.70
2023-01-12T04:54:02.069Z,10.10
2023-01-12T04:56:28.756Z,5.40
2023-01-12T04:59:00.280Z,9.60
2023-01-12T05:01:27.632Z,4.90
2023-01-12T05:03:55.000Z,6.90
2023-01-12T05:06:22.257Z,7.80
2023-01-12T05:09:07.866Z,8.00
2023-01-12T05:11:34.527Z,8.50
2023-01-12T05:14:01.175Z,7.00
2023-01-12T05:16:27.886Z,10.20
2023-01-12T05:18:54.658Z,7.90
2023-01-12T05:21:22.397Z,13.20
2023-01-12T05:23:49.533Z,7.00
2023-01-12T05:26:16.196Z,8.10
2023-01-12T05:28:42.788Z,10.50
2023-01-12T05:31:10.821Z,6.20
2023-01-12T05:33:37.970Z,9.80
2023-01-12T05:36:05.511Z,9.70
2023-01-12T05:38:32.183Z,11.70
2023-01-12T05:41:00.054Z,10.30
2023-01-12T05:43:45.691Z,13.40
2023-01-12T05:46:12.423Z,9.90
2023-01-12T05:48:39.212Z,17.50
2023-01-12T05:51:07.761Z,14.80
2023-01-12T05:53:35.973Z,13.60
2023-01-12T05:56:06.333Z,15.50
2023-01-12T05:58:32.948Z,9.30
2023-01-12T06:00:59.617Z,12.60
2023-01-12T06:03:27.852Z,9.50
2023-01-12T06:05:55.871Z,10.20
2023-01-12T06:08:22.626Z,11.50
2023-01-12T06:10:49.322Z,17.50
2023-01-12T06:13:34.892Z,10.30
2023-01-12T06:16:05.044Z,14.00
2023-01-12T06:18:38.452Z,15.80
2023-01-12T06:21:05.421Z,9.00
2023-01-12T06:23:35.302Z,14.40
2023-01-12T06:26:03.037Z,10.00
2023-01-12T06:28:29.744Z,9.10
2023-01-12T06:30:59.870Z,18.20
2023-01-12T06:33:26.663Z,10.30
2023-01-12T06:35:53.466Z,10.40
2023-01-12T06:38:20.355Z,10.80
2023-01-12T06:40:47.074Z,14.70
2023-01-12T06:43:13.835Z,10.90
2023-01-12T06:45:40.455Z,19.80
2023-01-12T06:48:07.150Z,10.90
2023-01-12T06:50:34.656Z,12.10
2023-01-12T06:53:01.674Z,16.90
2023-01-12T06:55:28.496Z,12.80
2023-01-12T06:57:55.127Z,17.60
2023-01-12T07:00:22.301Z,12.20
2023-01-12T07:02:49.555Z,17.40
2023-01-12T07:05:16.316Z,15.40
2023-01-12T07:07:43.569Z,10.40
2023-01-12T07:10:10.780Z,10.40
2023-01-12T07:12:37.544Z,10.10
2023-01-12T07:15:04.500Z,6.90
2023-01-12T07:17:31.226Z,7.60
2023-01-12T07:19:57.898Z,14.50
2023-01-12T07:22:26.183Z,14.10
2023-01-12T07:24:52.815Z,27.20
2023-01-12T07:27:19.500Z,21.50
2023-01-12T07:29:46.770Z,13.20
2023-01-12T07:32:13.370Z,6.70
2023-01-12T07:34:40.038Z,11.80
2023-01-12T07:37:06.643Z,9.30
2023-01-12T07:39:33.549Z,6.30
2023-01-12T07:42:19.156Z,9.30
2023-01-12T07:44:45.852Z,7.30
2023-01-12T07:47:12.475Z,5.90
2023-01-12T07:49:39.232Z,7.50
2023-01-12T07:52:05.922Z,7.00
2023-01-12T07:54:33.858Z,5.90
2023-01-12T07:57:00.486Z,10.60
2023-01-12T07:59:27.664Z,10.20
2023-01-12T08:01:57.728Z,10.80
2023-01-12T08:04:24.525Z,7.40
2023-01-12T08:06:51.136Z,9.10
2023-01-12T08:09:17.917Z,4.70
2023-01-12T08:11:45.750Z,6.70
2023-01-12T08:14:13.081Z,11.30
2023-01-12T08:16:40.825Z,14.40
2023-01-12T08:19:12.525Z,8.90
2023-01-12T08:21:45.157Z,15.40
2023-01-12T08:24:13.471Z,6.00
2023-01-12T08:26:40.263Z,8.20
2023-01-12T08:29:12.987Z,7.50
2023-01-12T08:31:39.896Z,8.10
2023-01-12T08:34:06.660Z,3.70
2023-01-12T08:36:33.303Z,9.90
2023-01-12T08:39:01.462Z,11.80
2023-01-12T08:41:34.299Z,9.30
2023-01-12T08:44:06.941Z,8.80
2023-01-12T08:46:33.610Z,14.50
2023-01-12T08:49:00.403Z,8.80
2023-01-12T08:51:27.122Z,26.20
2023-01-12T08:53:53.877Z,20.50
2023-01-12T08:56:20.668Z,23.60
2023-01-12T08:58:47.530Z,28.60
2023-01-12T09:01:14.901Z,10.50
2023-01-12T09:03:41.754Z,16.00
2023-01-12T09:06:12.226Z,16.90
2023-01-12T09:08:38.972Z,16.40
2023-01-12T09:11:05.790Z,13.80
2023-01-12T09:13:32.953Z,16.80
2023-01-12T09:16:12.854Z,28.50
2023-01-12T09:18:40.027Z,21.10
2023-01-12T09:21:07.627Z,21.40
2023-01-12T09:23:34.437Z,20.90
2023-01-12T09:26:04.203Z,26.90
2023-01-12T09:28:31.706Z,18.10
2023-01-12T09:31:02.662Z,14.10
2023-01-12T09:33:29.436Z,12.40
2023-01-12T09:36:06.204Z,8.00
2023-01-12T09:38:34.500Z,8.80
2023-01-12T09:41:02.484Z,25.90
2023-01-12T09:43:48.259Z,13.90
2023-01-12T09:46:37.512Z,10.30
2023-01-12T09:49:04.106Z,7.70
2023-01-12T09:51:32.668Z,11.10
2023-01-12T09:53:59.280Z,17.70
2023-01-12T09:56:28.500Z,8.80
2023-01-12T09:59:11.261Z,16.80
2023-01-12T10:01:37.885Z,20.80
2023-01-12T10:04:04.652Z,22.50
2023-01-12T10:06:31.525Z,31.40
2023-01-12T10:08:58.762Z,21.40
2023-01-12T10:11:30.334Z,15.80
2023-01-12T10:14:15.897Z,11.60
2023-01-12T10:16:48.898Z,15.90
2023-01-12T10:20:38.565Z,15.70
2023-01-12T10:23:08.372Z,18.50
2023-01-12T10:25:35.206Z,19.90
2023-01-12T10:28:22.059Z,18.40
2023-01-12T10:30:48.948Z,14.80
2023-01-12T10:33:25.440Z,14.60
2023-01-12T10:35:59.477Z,10.70
2023-01-12T10:38:34.719Z,21.30
2023-01-12T10:41:07.656Z,10.50
2023-01-12T10:43:34.329Z,10.10
2023-01-12T10:46:06.210Z,10.80
2023-01-12T10:48:32.925Z,9.70
2023-01-12T10:50:59.673Z,5.60
2023-01-12T10:53:30.407Z,8.90
2023-01-12T10:55:57.032Z,5.80
2023-01-12T10:58:27.892Z,4.80
2023-01-12T11:00:54.587Z,3.70
2023-01-12T11:04:19.391Z,5.20
2023-01-12T11:06:54.920Z,5.50
2023-01-12T11:09:22.925Z,7.50
2023-01-12T11:11:52.832Z,5.00
2023-01-12T11:14:27.206Z,9.00
2023-01-12T11:16:53.921Z,6.00
2023-01-12T11:19:26.158Z,7.70
2023-01-12T11:21:56.971Z,4.30
2023-01-12T11:26:18.993Z,4.20
2023-01-12T11:28:46.887Z,4.20
2023-01-12T11:31:13.640Z,8.80
2023-01-12T11:33:46.303Z,8.50
2023-01-12T11:36:36.369Z,6.10
2023-01-12T11:39:22.862Z,9.50
2023-01-12T11:42:09.110Z,5.90
2023-01-12T11:44:54.372Z,3.90
2023-01-12T11:47:21.516Z,6.50
2023-01-12T11:49:51.570Z,5.70
2023-01-12T11:52:18.191Z,4.20
2023-01-12T11:54:44.862Z,3.60
2023-01-12T11:57:15.986Z,19.10
2023-01-12T11:59:50.047Z,6.70
2023-01-12T12:02:35.186Z,4.50
2023-01-12T12:06:56.369Z,6.10
2023-01-12T12:09:22.952Z,8.60
2023-01-12T12:11:57.135Z,5.30
2023-01-12T12:14:36.356Z,6.10
2023-01-12T12:17:09.056Z,8.60
2023-01-12T12:19:48.260Z,6.30
2023-01-12T12:22:35.187Z,5.90
2023-01-12T12:25:03.614Z,6.40
2023-01-12T12:27:49.412Z,7.10
2023-01-12T12:30:24.976Z,5.60
2023-01-12T12:33:04.328Z,7.80
2023-01-12T12:35:38.902Z,5.90
2023-01-12T12:38:27.073Z,7.40
2023-01-12T12:41:18.883Z,9.30
2023-01-12T12:44:04.466Z,16.20
2023-01-12T12:46:37.296Z,15.50
2023-01-12T12:49:05.318Z,36.60
2023-01-12T12:51:32.886Z,26.20
2023-01-12T12:53:59.602Z,23.10
2023-01-12T12:56:26.265Z,25.10
2023-01-12T12:58:53.576Z,31.00
2023-01-12T13:01:20.338Z,32.50
2023-01-12T13:03:47.687Z,20.10
2023-01-12T13:06:19.306Z,28.10
2023-01-12T13:08:46.220Z,15.10
2023-01-12T13:11:12.883Z,16.20
2023-01-12T13:13:41.022Z,49.30
2023-01-12T13:16:21.947Z,21.20
2023-01-12T13:18:49.457Z,10.70
2023-01-12T13:21:35.558Z,9.40
2023-01-12T13:24:11.710Z,7.70
2023-01-12T13:26:42.390Z,5.80
2023-01-12T13:29:27.756Z,14.60
2023-01-12T13:31:58.305Z,14.20
2023-01-12T13:34:29.850Z,10.80
2023-01-12T13:37:15.294Z,6.20
2023-01-12T13:39:43.368Z,12.60
2023-01-12T13:42:32.424Z,10.70
2023-01-12T13:44:59.486Z,9.40
2023-01-12T13:47:26.815Z,7.60
2023-01-12T13:49:55.823Z,8.00
2023-01-12T13:52:31.850Z,6.50
2023-01-12T13:54:59.951Z,6.90
2023-01-12T13:57:27.326Z,9.70
2023-01-12T14:00:00.854Z,7.40
2023-01-12T14:02:31.424Z,11.80
2023-01-12T14:05:17.088Z,14.20
2023-01-12T14:07:46.616Z,9.70
2023-01-12T14:10:23.296Z,12.00
2023-01-12T14:12:59.147Z,8.60
2023-01-12T14:15:52.210Z,7.00
2023-01-12T14:18:19.723Z,6.60
2023-01-12T14:20:46.411Z,7.40
2023-01-12T14:23:13.338Z,13.80
2023-01-12T14:25:39.988Z,8.70
2023-01-12T14:28:14.140Z,10.60
2023-01-12T14:30:43.252Z,13.80
2023-01-12T14:33:15.414Z,10.30
2023-01-12T14:35:44.243Z,17.90
2023-01-12T14:38:11.008Z,7.50
2023-01-12T14:40:37.580Z,13.90
2023-01-12T14:43:23.166Z,17.30
2023-01-12T14:46:08.748Z,11.40
2023-01-12T14:48:40.507Z,51.80
2023-01-12T14:51:10.135Z,21.60
2023-01-12T14:53:40.760Z,20.10
2023-01-12T14:56:08.886Z,21.90
2023-01-12T14:58:35.661Z,22.30
2023-01-12T15:01:02.369Z,16.10
2023-01-12T15:03:42.923Z,18.50
2023-01-12T15:06:13.750Z,8.90
2023-01-12T15:08:49.408Z,10.70
2023-01-12T15:11:16.112Z,12.70
2023-01-12T15:13:42.736Z,19.40
2023-01-12T15:16:28.392Z,16.00
2023-01-12T15:19:13.932Z,19.60
2023-01-12T15:21:59.478Z,24.50
2023-01-12T15:24:45.502Z,10.70
2023-01-12T15:27:15.734Z,10.30
2023-01-12T15:29:42.337Z,19.00
2023-01-12T15:32:21.293Z,14.10
2023-01-12T15:34:47.989Z,17.50
2023-01-12T15:37:15.080Z,14.00
2023-01-12T15:39:41.928Z,12.60
2023-01-12T15:42:18.545Z,9.80
2023-01-12T15:44:45.318Z,14.10
2023-01-12T15:47:12.894Z,15.20
2023-01-12T15:49:40.608Z,10.30
2023-01-12T15:52:33.805Z,15.00
2023-01-12T15:55:00.407Z,10.60
2023-01-12T15:57:26.970Z,11.30
2023-01-12T15:59:53.632Z,11.90
2023-01-12T16:02:23.722Z,12.10
2023-01-12T16:04:50.345Z,10.60
2023-01-12T16:07:17.141Z,8.80
2023-01-12T16:09:47.705Z,7.60
2023-01-12T16:12:14.994Z,11.80
2023-01-12T16:14:41.609Z,10.90
2023-01-12T16:17:08.322Z,7.10
2023-01-12T16:19:41.170Z,6.50
2023-01-12T16:22:21.125Z,9.10
2023-01-12T16:24:48.549Z,4.70
2023-01-12T16:27:15.472Z,12.40
2023-01-12T16:29:42.297Z,11.40
2023-01-12T16:32:09.071Z,13.60
2023-01-12T16:34:35.827Z,6.90
2023-01-12T16:37:02.619Z,14.00
2023-01-12T16:39:29.281Z,5.70
2023-01-12T16:42:03.316Z,10.30
2023-01-12T16:44:36.721Z,5.50
2023-01-12T16:47:04.391Z,3.40
2023-01-12T16:49:31.030Z,11.50
2023-01-12T16:51:57.621Z,8.30
2023-01-12T16:54:24.216Z,6.50
2023-01-12T16:56:51.143Z,11.00
2023-01-12T16:59:17.721Z,5.80
2023-01-12T17:01:44.749Z,7.30
2023-01-12T17:06:47.021Z,7.40
2023-01-12T17:10:34.289Z,13.10
2023-01-12T17:13:02.303Z,7.00
2023-01-12T17:15:30.093Z,6.50
2023-01-12T17:17:57.093Z,33.90
2023-01-12T17:20:23.916Z,27.50
2023-01-12T17:22:50.825Z,8.50
2023-01-12T17:25:17.959Z,18.30
2023-01-12T17:27:44.903Z,25.10
2023-01-12T17:30:11.745Z,15.50
2023-01-12T17:32:39.347Z,15.10
2023-01-12T17:49:48.936Z,20.90
2023-01-12T17:52:15.671Z,18.40
2023-01-12T17:54:42.831Z,19.10
2023-01-12T17:57:09.521Z,16.90
2023-01-12T17:59:36.138Z,11.80
2023-01-12T18:02:02.939Z,7.80
2023-01-12T18:04:29.706Z,20.80
2023-01-12T18:06:56.328Z,16.10
2023-01-12T18:09:23.052Z,18.70
2023-01-12T18:11:49.679Z,10.60
2023-01-12T18:24:13.582Z,14.30
2023-01-12T18:26:40.291Z,13.40
2023-01-12T18:29:07.229Z,9.80
2023-01-12T18:31:37.380Z,9.40
2023-01-12T18:34:10.628Z,12.10
2023-01-12T18:36:38.123Z,10.20
2023-01-12T18:39:05.550Z,14.40
2023-01-12T18:41:51.191Z,10.10
2023-01-12T18:44:17.930Z,15.90
2023-01-12T18:50:26.287Z,7.60
2023-01-12T18:55:13.210Z,15.00
2023-01-12T18:57:39.816Z,12.60
2023-01-12T19:00:16.563Z,12.80
2023-01-12T19:02:43.409Z,17.90
2023-01-12T19:05:24.148Z,10.40
2023-01-12T19:07:59.806Z,11.00
2023-01-12T19:10:27.021Z,15.10
2023-01-12T19:13:13.595Z,13.10
2023-01-12T19:15:59.287Z,15.90
2023-01-12T19:18:26.077Z,20.90
2023-01-12T19:21:12.667Z,14.90
2023-01-12T19:36:22.431Z,16.40
2023-01-12T19:38:52.793Z,19.10
2023-01-12T19:41:38.617Z,12.70
2023-01-12T19:44:05.845Z,13.10
2023-01-12T19:46:33.238Z,19.70
2023-01-12T19:48:59.978Z,20.70
2023-01-12T19:51:26.696Z,14.30
2023-01-12T19:53:53.320Z,37.20
2023-01-12T20:09:21.024Z,45.10
2023-01-12T20:11:54.371Z,23.10
2023-01-12T20:14:21.405Z,23.70
2023-01-12T20:16:48.049Z,32.90
2023-01-12T20:19:14.793Z,23.40
2023-01-12T20:21:41.391Z,37.90
2023-01-12T20:24:08.032Z,33.10
2023-01-12T20:26:35.050Z,55.40
2023-01-12T20:29:01.954Z,23.70
2023-01-12T20:31:28.554Z,46.50
2023-01-12T20:33:55.167Z,25.00
2023-01-12T20:36:21.785Z,49.20
2023-01-12T20:38:50.602Z,20.30
2023-01-12T20:41:17.572Z,31.70
2023-01-12T20:43:44.382Z,29.60
2023-01-12T20:46:11.654Z,19.70
2023-01-12T20:48:40.254Z,15.60
2023-01-12T20:51:08.555Z,16.00
2023-01-12T20:53:35.208Z,17.60
2023-01-12T20:56:01.863Z,17.30
2023-01-12T20:58:28.663Z,13.10
2023-01-12T21:00:55.305Z,15.20
2023-01-12T21:03:22.700Z,17.30
2023-01-12T21:05:49.391Z,13.10
2023-01-12T21:08:16.242Z,17.60
2023-01-12T21:10:50.578Z,28.90
2023-01-12T21:13:17.554Z,19.00
2023-01-12T21:15:44.756Z,23.40
2023-01-12T21:18:11.524Z,13.00
2023-01-12T21:20:42.813Z,20.30
2023-01-12T21:23:09.482Z,11.60
2023-01-12T21:25:40.049Z,21.50
2023-01-12T21:28:06.647Z,17.50
2023-01-12T21:30:33.338Z,21.40
2023-01-12T21:32:59.915Z,16.60
2023-01-12T21:35:26.551Z,17.70
2023-01-12T21:37:53.378Z,7.90
2023-01-12T21:40:20.958Z,11.80
2023-01-12T21:43:06.523Z,19.70
2023-01-12T21:45:34.633Z,21.30
2023-01-12T21:48:01.223Z,15.90
2023-01-12T21:50:28.010Z,19.70
2023-01-12T21:52:54.653Z,38.10
2023-01-12T21:55:21.366Z,21.00
2023-01-12T21:57:48.303Z,21.70
2023-01-12T22:00:15.795Z,23.10
2023-01-12T22:02:43.128Z,13.80
2023-01-12T22:05:10.396Z,19.40
2023-01-12T22:07:36.976Z,17.80
2023-01-12T22:10:19.212Z,16.30
2023-01-12T22:12:46.597Z,20.90
2023-01-12T22:15:13.284Z,26.30
2023-01-12T22:17:39.925Z,20.60
2023-01-12T22:20:07.024Z,19.70
2023-01-12T22:22:33.675Z,15.00
2023-01-12T22:25:00.279Z,27.50
2023-01-12T22:27:27.005Z,27.80
2023-01-12T22:29:53.749Z,25.10
2023-01-12T22:32:20.460Z,25.10
2023-01-12T22:34:47.109Z,24.10
2023-01-12T22:37:13.677Z,9.30
2023-01-12T22:39:40.279Z,13.10
2023-01-12T22:42:06.929Z,12.10
2023-01-12T22:44:33.506Z,9.00
2023-01-12T22:47:00.163Z,10.40
2023-01-12T22:49:26.952Z,13.10
2023-01-12T22:51:53.547Z,10.60
2023-01-12T22:54:20.248Z,19.00
2023-01-12T22:56:46.897Z,18.90
2023-01-12T22:59:13.509Z,18.90
2023-01-12T23:01:40.190Z,15.20
2023-01-12T23:04:07.032Z,18.60
2023-01-12T23:06:37.411Z,13.40
2023-01-12T23:09:04.102Z,19.40
2023-01-12T23:11:30.752Z,17.80
2023-01-12T23:13:57.391Z,24.40
2023-01-12T23:16:24.340Z,13.20
2023-01-12T23:18:51.803Z,18.10
2023-01-12T23:21:20.080Z,12.60
2023-01-12T23:23:50.718Z,10.20
2023-01-12T23:26:18.404Z,16.20
2023-01-12T23:28:46.389Z,11.10
2023-01-12T23:31:14.040Z,15.90
2023-01-12T23:33:41.791Z,27.30
2023-01-12T23:36:09.697Z,18.20
2023-01-12T23:38:36.383Z,19.20
2023-01-12T23:41:13.388Z,19.40
2023-01-12T23:43:40.073Z,20.80
2023-01-12T23:46:07.432Z,23.80
2023-01-12T23:48:34.342Z,14.90
2023-01-12T23:51:01.035Z,10.90
2023-01-12T23:53:27.952Z,21.10
2023-01-12T23:55:55.033Z,18.20
2023-01-12T23:58:21.734Z,19.20
